Time;durP1;ratioP1;P1;durP2;ratioP2;P2;SDS_P1;SDS_P2;PMS_P1;PMS_P2;Temp;Humidity;BMP_temperature;BMP_pressure;BME280_temperature;BME280_humidity;BME280_pressure;Samples;Min_cycle;Max_cycle;Signal;HPM_P1;HPM_P2
2021/08/09 00:00:06;;;;;;;14.23;10.98;;;24.90;76.80;;;;;;1871837;77;21016;-54
2021/08/09 00:02:37;;;;;;;15.40;11.25;;;25.00;77.00;;;;;;1871995;76;21426;-53
2021/08/09 00:05:07;;;;;;;14.87;12.40;;;24.90;77.00;;;;;;1871824;77;21033;-53
2021/08/09 00:07:36;;;;;;;17.02;12.18;;;24.90;76.60;;;;;;1871791;77;21095;-53
2021/08/09 00:10:06;;;;;;;13.70;11.65;;;24.90;76.60;;;;;;1871954;77;21099;-54
2021/08/09 00:12:36;;;;;;;15.80;12.53;;;24.80;77.10;;;;;;1871879;77;21033;-52
2021/08/09 00:15:06;;;;;;;15.35;12.43;;;24.70;77.50;;;;;;1871897;77;21110;-53
2021/08/09 00:17:35;;;;;;;15.00;11.53;;;24.70;77.60;;;;;;1872016;77;21049;-53
2021/08/09 00:20:05;;;;;;;13.50;12.10;;;24.80;77.60;;;;;;1871897;77;21033;-54
2021/08/09 00:22:35;;;;;;;14.23;11.57;;;24.80;77.60;;;;;;1871819;77;21107;-53
2021/08/09 00:25:04;;;;;;;13.25;10.75;;;24.80;77.60;;;;;;1871919;77;21036;-53
2021/08/09 00:27:34;;;;;;;15.30;11.93;;;24.90;77.70;;;;;;1872021;77;21061;-53
2021/08/09 00:30:03;;;;;;;13.83;11.35;;;24.90;77.50;;;;;;1871882;77;21029;-52
2021/08/09 00:32:32;;;;;;;14.18;12.70;;;24.90;77.30;;;;;;1871769;77;21103;-53
2021/08/09 00:35:02;;;;;;;12.37;11.15;;;24.90;77.30;;;;;;1871784;77;21045;-53
2021/08/09 00:37:31;;;;;;;14.68;11.68;;;24.80;77.50;;;;;;1871893;76;21013;-53
2021/08/09 00:40:02;;;;;;;12.70;11.12;;;24.80;77.60;;;;;;1872675;76;21111;-52
2021/08/09 00:42:33;;;;;;;17.67;11.60;;;24.80;77.60;;;;;;1886380;76;21053;-54
2021/08/09 00:45:02;;;;;;;18.12;11.30;;;24.90;77.60;;;;;;1886176;76;21009;-53
2021/08/09 00:47:31;;;;;;;17.00;11.30;;;24.90;77.60;;;;;;1886191;76;21534;-53
2021/08/09 00:50:01;;;;;;;13.80;11.15;;;24.80;77.30;;;;;;1886189;76;21041;-53
2021/08/09 00:52:32;;;;;;;14.87;11.70;;;24.80;77.50;;;;;;1885954;76;21475;-52
2021/08/09 00:55:04;;;;;;;15.25;11.40;;;24.80;77.60;;;;;;1886268;76;21115;-53
2021/08/09 00:57:34;;;;;;;15.63;11.35;;;24.80;77.50;;;;;;1886225;76;21103;-53
2021/08/09 01:00:05;;;;;;;12.45;11.22;;;24.80;77.50;;;;;;1886300;76;21132;-52
2021/08/09 01:02:36;;;;;;;20.10;11.03;;;24.60;77.20;;;;;;1886035;76;21056;-53
2021/08/09 01:05:06;;;;;;;11.38;9.95;;;24.60;77.60;;;;;;1886162;76;21104;-54
2021/08/09 01:07:45;;;;;;;15.28;10.70;;;24.50;78.00;;;;;;1886230;76;21029;-53
2021/08/09 01:10:27;;;;;;;14.45;11.43;;;24.50;78.00;;;;;;1886148;76;21010;-53
2021/08/09 01:13:21;;;;;;;20.62;11.50;;;24.50;78.00;;;;;;1886165;75;21010;-53
2021/08/09 01:15:53;;;;;;;13.35;12.03;;;24.60;77.80;;;;;;1886206;76;21535;-53
2021/08/09 01:18:24;;;;;;;13.75;11.15;;;24.50;77.40;;;;;;1886258;76;21088;-54
2021/08/09 01:20:56;;;;;;;18.20;12.40;;;24.40;77.90;;;;;;1886302;76;21111;-52
2021/08/09 01:23:58;;;;;;;14.47;11.53;;;24.40;78.10;;;;;;1886490;76;21025;-53
2021/08/09 01:26:35;;;;;;;12.73;11.15;;;24.40;78.20;;;;;;1886329;76;21480;-53
2021/08/09 01:29:13;;;;;;;13.50;11.35;;;24.40;78.20;;;;;;1886270;76;21052;-54
2021/08/09 01:31:46;;;;;;;13.65;10.93;;;24.50;78.20;;;;;;1886284;76;21123;-53
2021/08/09 01:34:18;;;;;;;15.90;11.73;;;24.50;78.30;;;;;;1885790;76;21041;-53
2021/08/09 01:36:51;;;;;;;14.45;12.73;;;24.60;78.10;;;;;;1886321;76;21049;-53
2021/08/09 01:39:20;;;;;;;13.08;11.55;;;24.60;78.00;;;;;;1886251;76;21472;-53
2021/08/09 01:41:53;;;;;;;13.45;11.43;;;24.60;78.00;;;;;;1886251;76;21072;-53
2021/08/09 01:44:24;;;;;;;14.45;12.58;;;24.70;78.00;;;;;;1886237;76;21053;-53
2021/08/09 01:46:54;;;;;;;12.78;11.12;;;24.60;77.50;;;;;;1886310;76;21030;-52
2021/08/09 01:49:25;;;;;;;12.75;11.43;;;24.50;77.40;;;;;;1886392;76;21033;-53
2021/08/09 01:51:57;;;;;;;14.38;11.43;;;24.40;78.00;;;;;;1886077;76;21033;-52
2021/08/09 01:54:26;;;;;;;17.37;12.18;;;24.40;78.20;;;;;;1886252;76;21037;-53
2021/08/09 01:56:57;;;;;;;12.63;11.33;;;24.30;78.00;;;;;;1886369;76;21095;-52
2021/08/09 01:59:26;;;;;;;15.30;12.13;;;24.30;78.20;;;;;;1886311;76;21096;-53
2021/08/09 02:01:56;;;;;;;13.28;11.90;;;24.20;78.20;;;;;;1886306;76;21570;-52
2021/08/09 02:04:25;;;;;;;18.50;12.73;;;24.10;78.40;;;;;;1886333;76;21072;-53
2021/08/09 02:06:55;;;;;;;18.12;13.00;;;24.20;78.50;;;;;;1886422;76;21014;-52
2021/08/09 02:09:25;;;;;;;13.78;12.40;;;24.10;78.50;;;;;;1886399;76;21159;-52
2021/08/09 02:12:06;;;;;;;16.70;12.63;;;24.00;78.80;;;;;;1886233;76;21034;-53
2021/08/09 02:14:42;;;;;;;16.30;12.93;;;24.00;78.70;;;;;;1886059;76;21124;-53
2021/08/09 02:17:15;;;;;;;14.30;12.30;;;23.90;78.50;;;;;;1886343;76;21162;-53
2021/08/09 02:19:56;;;;;;;19.07;12.58;;;23.90;78.80;;;;;;1884957;76;21083;-52
2021/08/09 02:22:31;;;;;;;19.45;12.47;;;23.80;79.00;;;;;;1886346;76;21093;-53
2021/08/09 02:25:11;;;;;;;17.30;11.53;;;23.70;79.10;;;;;;1886293;76;21205;-51
2021/08/09 02:27:52;;;;;;;14.43;11.40;;;23.60;79.50;;;;;;1882679;75;21037;-52
2021/08/09 02:30:25;;;;;;;19.00;12.28;;;23.70;79.70;;;;;;1886202;76;21110;-52
2021/08/09 02:32:57;;;;;;;18.15;12.50;;;23.70;79.60;;;;;;1886222;76;21021;-53
2021/08/09 02:35:28;;;;;;;17.98;14.18;;;23.70;79.60;;;;;;1886429;76;21554;-53
2021/08/09 02:37:58;;;;;;;21.17;17.20;;;23.70;79.60;;;;;;1886236;76;21033;-51
2021/08/09 02:40:28;;;;;;;18.05;15.15;;;23.70;79.50;;;;;;1886363;76;21111;-52
2021/08/09 02:42:59;;;;;;;18.10;16.15;;;23.70;79.50;;;;;;1875168;76;21053;-51
2021/08/09 02:45:29;;;;;;;20.32;15.30;;;23.70;79.60;;;;;;1871919;76;21025;-52
2021/08/09 02:47:59;;;;;;;19.42;13.93;;;23.70;79.60;;;;;;1871985;77;21033;-51
2021/08/09 02:50:28;;;;;;;14.98;12.82;;;23.70;79.70;;;;;;1871836;77;21091;-52
2021/08/09 02:52:59;;;;;;;18.90;13.70;;;23.70;79.70;;;;;;1871890;77;21029;-52
2021/08/09 02:55:30;;;;;;;20.88;14.73;;;23.60;79.70;;;;;;1872014;77;21001;-53
2021/08/09 02:58:06;;;;;;;21.23;13.93;;;23.60;79.80;;;;;;1871900;77;21099;-51
2021/08/09 03:00:32;;;;;;;22.10;13.95;;;23.60;79.90;;;;;;1872229;76;21033;-53
2021/08/09 03:03:01;;;;;;;18.05;12.78;;;23.60;79.90;;;;;;1871959;77;21099;-52
2021/08/09 03:05:33;;;;;;;17.15;12.82;;;23.60;79.90;;;;;;1871953;77;21056;-52
2021/08/09 03:08:03;;;;;;;18.25;12.55;;;23.70;79.70;;;;;;1871865;77;21080;-52
2021/08/09 03:10:32;;;;;;;13.90;11.83;;;23.70;79.50;;;;;;1871965;77;21142;-51
2021/08/09 03:13:04;;;;;;;17.00;12.78;;;23.80;79.50;;;;;;1871796;77;21070;-52
2021/08/09 03:15:32;;;;;;;14.05;11.55;;;23.90;79.40;;;;;;1871884;77;21166;-52
2021/08/09 03:18:02;;;;;;;15.23;11.57;;;23.90;79.30;;;;;;1871894;77;21088;-52
2021/08/09 03:20:33;;;;;;;13.95;12.60;;;23.90;79.20;;;;;;1871968;76;21060;-51
2021/08/09 03:23:02;;;;;;;14.28;12.78;;;23.90;79.10;;;;;;1871817;76;21146;-52
2021/08/09 03:25:31;;;;;;;14.07;12.68;;;24.00;79.30;;;;;;1871862;77;21397;-52
2021/08/09 03:28:02;;;;;;;18.70;12.43;;;24.00;79.40;;;;;;1871831;77;21001;-53
2021/08/09 03:30:32;;;;;;;26.97;14.55;;;24.10;79.20;;;;;;1871888;77;21098;-53
2021/08/09 03:33:01;;;;;;;17.52;12.07;;;24.20;78.80;;;;;;1871762;77;21028;-51
2021/08/09 03:35:32;;;;;;;19.12;12.53;;;24.30;78.50;;;;;;1871987;77;21424;-52
2021/08/09 03:38:01;;;;;;;17.00;13.25;;;24.30;78.30;;;;;;1871913;77;21033;-52
2021/08/09 03:40:31;;;;;;;17.10;13.70;;;24.40;78.20;;;;;;1871801;77;21029;-52
2021/08/09 03:43:00;;;;;;;17.52;13.20;;;24.50;78.20;;;;;;1871879;75;21135;-52
2021/08/09 03:45:30;;;;;;;17.62;13.38;;;24.50;78.10;;;;;;1871842;77;21041;-52
2021/08/09 03:47:59;;;;;;;15.13;12.68;;;24.50;78.00;;;;;;1871801;77;21029;-52
2021/08/09 03:50:29;;;;;;;15.00;13.22;;;24.60;78.00;;;;;;1871824;77;21013;-53
2021/08/09 03:52:58;;;;;;;15.10;12.50;;;24.60;77.90;;;;;;1871682;76;21033;-52
2021/08/09 03:55:28;;;;;;;14.45;13.00;;;24.70;77.70;;;;;;1871818;77;21013;-53
2021/08/09 03:57:57;;;;;;;16.27;12.95;;;24.80;77.50;;;;;;1871819;77;21069;-52
2021/08/09 04:00:27;;;;;;;13.75;12.23;;;24.80;77.40;;;;;;1871786;77;21038;-53
2021/08/09 04:02:57;;;;;;;17.30;13.10;;;24.80;78.00;;;;;;1871754;76;21041;-52
2021/08/09 04:05:28;;;;;;;13.83;12.07;;;24.80;77.50;;;;;;1871249;76;21052;-52
2021/08/09 04:07:57;;;;;;;15.18;12.63;;;24.80;77.40;;;;;;1871828;77;21538;-51
2021/08/09 04:10:26;;;;;;;15.78;12.00;;;24.80;77.40;;;;;;1871828;76;21005;-51
2021/08/09 04:12:56;;;;;;;13.88;11.95;;;24.90;77.40;;;;;;1871710;77;21045;-53
2021/08/09 04:15:26;;;;;;;15.30;11.78;;;25.00;77.40;;;;;;1871879;76;21037;-52
2021/08/09 04:17:56;;;;;;;19.42;13.32;;;25.00;77.30;;;;;;1871825;77;21025;-50
2021/08/09 04:20:25;;;;;;;18.02;12.68;;;25.10;77.20;;;;;;1871829;76;21005;-51
2021/08/09 04:22:55;;;;;;;18.15;12.15;;;25.10;77.00;;;;;;1871925;77;21099;-52
2021/08/09 04:25:27;;;;;;;16.67;12.98;;;25.10;77.00;;;;;;1871751;76;21025;-52
2021/08/09 04:27:55;;;;;;;15.98;13.05;;;25.10;77.60;;;;;;1871751;77;21662;-52
2021/08/09 04:30:25;;;;;;;37.48;17.45;;;25.20;77.00;;;;;;1871749;77;21080;-52
2021/08/09 04:32:54;;;;;;;21.57;13.70;;;25.20;77.00;;;;;;1871707;77;21090;-53
2021/08/09 04:35:24;;;;;;;15.15;12.23;;;25.20;77.00;;;;;;1871715;77;21103;-52
2021/08/09 04:37:54;;;;;;;16.35;12.47;;;25.20;77.10;;;;;;1871735;76;21460;-52
2021/08/09 04:40:23;;;;;;;22.32;11.95;;;25.30;77.20;;;;;;1871847;77;21507;-51
2021/08/09 04:42:52;;;;;;;15.05;12.03;;;25.30;77.20;;;;;;1871722;76;21531;-52
2021/08/09 04:45:24;;;;;;;19.90;13.40;;;25.40;77.10;;;;;;1871779;77;21052;-51
2021/08/09 04:47:53;;;;;;;14.15;12.30;;;25.30;77.00;;;;;;1871776;77;21487;-52
2021/08/09 04:50:23;;;;;;;14.13;12.55;;;25.30;77.10;;;;;;1871914;77;21103;-52
2021/08/09 04:52:53;;;;;;;13.90;11.95;;;25.30;77.20;;;;;;1871688;76;21158;-52
2021/08/09 04:55:24;;;;;;;15.98;12.95;;;25.30;77.30;;;;;;1871929;76;21166;-52
2021/08/09 04:57:55;;;;;;;17.85;12.95;;;25.40;77.20;;;;;;1871825;76;21091;-52
2021/08/09 05:00:25;;;;;;;21.82;12.75;;;25.40;77.20;;;;;;1871863;77;21025;-52
2021/08/09 05:02:55;;;;;;;17.40;12.73;;;25.50;77.80;;;;;;1871629;77;21033;-52
2021/08/09 05:05:24;;;;;;;19.95;14.25;;;25.60;76.90;;;;;;1871758;77;21013;-51
2021/08/09 05:07:57;;;;;;;13.50;12.15;;;25.80;76.70;;;;;;1871712;77;21103;-51
2021/08/09 05:10:27;;;;;;;;;;;25.80;76.20;;;;;;1874503;77;21061;-52
2021/08/09 05:12:57;;;;;;;13.48;11.38;;;25.90;76.10;;;;;;1871722;77;20366;-52
2021/08/09 05:15:28;;;;;;;15.93;12.65;;;25.90;76.00;;;;;;1871826;77;21013;-52
2021/08/09 05:17:57;;;;;;;25.50;12.10;;;25.90;76.00;;;;;;1871841;77;21037;-51
2021/08/09 05:20:27;;;;;;;15.38;12.65;;;25.90;76.00;;;;;;1871742;77;21090;-51
2021/08/09 05:22:56;;;;;;;14.50;11.60;;;26.00;76.00;;;;;;1871815;77;21032;-52
2021/08/09 05:25:26;;;;;;;16.50;12.37;;;26.00;75.80;;;;;;1871732;77;21049;-52
2021/08/09 05:27:55;;;;;;;14.90;12.23;;;26.00;75.90;;;;;;1871752;77;21029;-52
2021/08/09 05:30:25;;;;;;;25.52;14.80;;;26.00;75.80;;;;;;1871562;77;21037;-51
2021/08/09 05:32:55;;;;;;;20.65;12.70;;;25.90;76.00;;;;;;1871439;77;21037;-52
2021/08/09 05:35:24;;;;;;;16.97;12.58;;;25.90;76.00;;;;;;1871493;76;21087;-52
2021/08/09 05:37:55;;;;;;;13.48;12.07;;;26.00;76.10;;;;;;1871456;77;21096;-51
2021/08/09 05:40:25;;;;;;;13.30;11.50;;;26.00;76.00;;;;;;1871433;77;21198;-52
2021/08/09 05:42:54;;;;;;;16.60;11.90;;;26.00;76.00;;;;;;1871449;77;21061;-53
2021/08/09 05:45:24;;;;;;;15.83;12.00;;;26.00;76.10;;;;;;1889363;76;21103;-52
2021/08/09 05:47:54;;;;;;;15.72;12.82;;;26.00;76.30;;;;;;1889362;76;21034;-52
2021/08/09 05:50:24;;;;;;;20.50;14.15;;;26.00;76.30;;;;;;1889328;76;21029;-51
2021/08/09 05:53:04;;;;;;;15.48;12.65;;;26.00;76.50;;;;;;1888512;76;21150;-53
2021/08/09 05:55:34;;;;;;;14.80;12.73;;;25.90;76.50;;;;;;1889402;76;21053;-50
2021/08/09 05:58:05;;;;;;;15.03;12.68;;;25.90;76.60;;;;;;1889074;76;21061;-52
2021/08/09 06:00:35;;;;;;;15.50;12.63;;;25.90;76.80;;;;;;1889756;76;21111;-52
2021/08/09 06:03:05;;;;;;;19.10;13.35;;;25.90;77.00;;;;;;1889574;76;21017;-53
2021/08/09 06:05:40;;;;;;;12.70;11.38;;;25.90;77.10;;;;;;1895900;74;21049;-53
2021/08/09 06:08:17;;;;;;;20.27;14.00;;;26.00;77.30;;;;;;1895765;74;21084;-52
2021/08/09 06:10:49;;;;;;;15.58;11.65;;;26.00;77.60;;;;;;1881874;74;21107;-54
2021/08/09 06:13:19;;;;;;;16.20;12.15;;;26.20;77.50;;;;;;1902977;74;21057;-53
2021/08/09 06:15:49;;;;;;;14.70;13.00;;;26.30;77.00;;;;;;1896755;74;21178;-53
2021/08/09 06:18:19;;;;;;;20.10;16.37;;;26.30;76.60;;;;;;1912963;74;21001;-53
2021/08/09 06:20:49;;;;;;;20.23;16.27;;;26.40;76.40;;;;;;1911905;74;21009;-52
2021/08/09 06:23:18;;;;;;;20.25;14.38;;;26.40;76.00;;;;;;1896614;76;21036;-54
2021/08/09 06:25:48;;;;;;;21.40;14.23;;;26.40;76.00;;;;;;1896722;76;21057;-52
2021/08/09 06:28:17;;;;;;;16.32;13.50;;;26.30;75.90;;;;;;1903502;74;21107;-52
2021/08/09 06:30:47;;;;;;;21.80;13.55;;;26.30;75.90;;;;;;1900299;75;21013;-54
2021/08/09 06:33:18;;;;;;;16.75;13.55;;;26.40;75.70;;;;;;1893456;75;21134;-53
2021/08/09 06:35:49;;;;;;;14.80;12.30;;;26.40;75.60;;;;;;1923690;74;21083;-53
2021/08/09 06:38:20;;;;;;;19.35;13.53;;;26.40;75.30;;;;;;1929626;74;21036;-53
2021/08/09 06:40:49;;;;;;;14.50;11.88;;;26.40;75.10;;;;;;1929670;74;21025;-53
2021/08/09 06:43:20;;;;;;;13.68;12.25;;;26.50;74.80;;;;;;1929812;74;21123;-53
2021/08/09 06:45:54;;;;;;;15.43;12.18;;;26.60;74.70;;;;;;1894565;74;21161;-53
2021/08/09 06:48:26;;;;;;;18.52;15.45;;;26.50;74.50;;;;;;1871602;77;21056;-50
2021/08/09 06:50:55;;;;;;;14.03;12.40;;;26.60;74.80;;;;;;1870026;77;21007;-50
2021/08/09 06:53:25;;;;;;;18.45;12.65;;;26.50;74.80;;;;;;1872832;76;21071;-50
2021/08/09 06:55:54;;;;;;;14.33;12.90;;;26.50;74.90;;;;;;1885119;76;21101;-50
2021/08/09 06:58:38;;;;;;;12.20;9.30;;;26.50;75.10;;;;;;1875734;76;21116;-47
2021/08/09 07:01:15;;;;;;;12.67;10.40;;;26.50;74.30;;;;;;1889174;76;21111;-50
2021/08/09 07:03:59;;;;;;;17.80;13.48;;;26.50;73.60;;;;;;1889295;76;21024;-47
2021/08/09 07:06:35;;;;;;;17.55;13.75;;;26.60;73.80;;;;;;1888130;76;21025;-49
2021/08/09 07:09:14;;;;;;;20.97;13.48;;;26.70;74.10;;;;;;1880216;75;21023;-47
2021/08/09 07:11:50;;;;;;;16.73;13.05;;;26.70;74.20;;;;;;1872994;76;21078;-46
2021/08/09 07:14:30;;;;;;;14.25;11.60;;;26.70;74.40;;;;;;1876351;76;21487;-51
2021/08/09 07:17:09;;;;;;;15.25;12.03;;;26.80;74.30;;;;;;1886261;74;21083;-47
2021/08/09 07:19:43;;;;;;;16.50;12.68;;;26.80;74.30;;;;;;1874984;74;21447;-52
2021/08/09 07:22:14;;;;;;;16.65;13.55;;;26.80;74.30;;;;;;1874983;76;21029;-51
2021/08/09 07:24:44;;;;;;;18.42;12.93;;;26.90;74.40;;;;;;1873337;74;21471;-54
2021/08/09 07:27:13;;;;;;;15.55;12.15;;;27.00;74.20;;;;;;1883674;74;21141;-55
2021/08/09 07:29:43;;;;;;;17.27;12.60;;;27.10;74.10;;;;;;1886046;74;21503;-49
2021/08/09 07:32:13;;;;;;;15.20;12.98;;;27.20;73.80;;;;;;1886180;74;21072;-50
2021/08/09 07:34:42;;;;;;;15.08;12.58;;;27.20;73.50;;;;;;1874066;74;21013;-49
2021/08/09 07:37:12;;;;;;;17.23;13.30;;;27.30;73.30;;;;;;1871407;74;21534;-50
2021/08/09 07:39:42;;;;;;;19.67;14.50;;;27.40;73.00;;;;;;1883013;74;21201;-47
2021/08/09 07:42:12;;;;;;;19.65;15.23;;;27.60;72.80;;;;;;1875312;74;21090;-49
2021/08/09 07:44:42;;;;;;;21.25;16.82;;;27.60;73.10;;;;;;1870671;75;21484;-47
2021/08/09 07:47:11;;;;;;;14.30;12.80;;;27.70;72.40;;;;;;1872326;74;21148;-46
2021/08/09 07:49:41;;;;;;;17.23;12.68;;;27.80;72.20;;;;;;1877679;74;21112;-50
2021/08/09 07:52:10;;;;;;;18.23;13.78;;;27.90;71.80;;;;;;1877510;74;21091;-47
2021/08/09 07:54:40;;;;;;;15.70;12.28;;;28.00;71.60;;;;;;1886240;76;21085;-49
2021/08/09 07:57:09;;;;;;;15.45;11.90;;;28.20;71.30;;;;;;1875469;74;21076;-51
2021/08/09 07:59:39;;;;;;;14.70;12.05;;;28.30;70.60;;;;;;1878633;74;21193;-50
2021/08/09 08:02:10;;;;;;;19.87;13.55;;;28.40;70.30;;;;;;1880184;74;21182;-47
2021/08/09 08:04:42;;;;;;;15.25;11.60;;;28.50;70.20;;;;;;1880723;74;21145;-49
2021/08/09 08:07:10;;;;;;;15.05;12.00;;;28.60;69.40;;;;;;1873730;74;21398;-49
2021/08/09 08:09:40;;;;;;;15.18;12.18;;;28.70;68.90;;;;;;1874750;74;21188;-49
2021/08/09 08:12:09;;;;;;;12.20;10.98;;;28.60;68.90;;;;;;1886558;74;21005;-48
2021/08/09 08:14:40;;;;;;;18.15;12.07;;;28.70;68.60;;;;;;1873948;74;21076;-51
2021/08/09 08:17:10;;;;;;;13.20;10.15;;;28.80;68.60;;;;;;1874687;74;21156;-47
2021/08/09 08:19:40;;;;;;;14.60;10.93;;;28.90;68.20;;;;;;1872313;74;21118;-49
2021/08/09 08:22:10;;;;;;;13.40;10.72;;;28.90;67.80;;;;;;1870143;77;21092;-52
2021/08/09 08:24:42;;;;;;;14.30;9.50;;;28.90;67.80;;;;;;1877859;74;21153;-48
2021/08/09 08:27:12;;;;;;;11.95;10.75;;;28.80;67.40;;;;;;1881633;74;21005;-51
2021/08/09 08:29:43;;;;;;;13.90;10.38;;;28.80;67.30;;;;;;1877849;74;21027;-54
2021/08/09 08:32:12;;;;;;;15.70;11.03;;;28.80;67.30;;;;;;1876790;74;21095;-52
2021/08/09 08:34:42;;;;;;;13.43;11.08;;;28.80;67.60;;;;;;1873267;76;21086;-52
2021/08/09 08:37:11;;;;;;;17.82;11.12;;;28.70;67.40;;;;;;1873872;74;21056;-52
2021/08/09 08:39:41;;;;;;;14.78;9.98;;;28.70;67.70;;;;;;1872596;76;21137;-52
2021/08/09 08:42:14;;;;;;;11.25;10.10;;;28.70;67.70;;;;;;1884406;76;21092;-51
2021/08/09 08:44:52;;;;;;;14.07;9.63;;;28.70;67.40;;;;;;1877656;74;21081;-55
2021/08/09 08:47:25;;;;;;;12.40;10.68;;;28.70;67.20;;;;;;1873385;74;21162;-50
2021/08/09 08:49:56;;;;;;;11.78;10.68;;;28.70;67.00;;;;;;1872924;74;21542;-52
2021/08/09 08:52:26;;;;;;;11.83;9.40;;;28.70;67.20;;;;;;1870782;76;21172;-51
2021/08/09 08:54:56;;;;;;;11.33;10.13;;;28.70;67.30;;;;;;1862947;74;21068;-47
2021/08/09 08:57:26;;;;;;;18.60;10.38;;;28.70;67.50;;;;;;1864551;77;21084;-51
2021/08/09 08:59:56;;;;;;;13.38;9.80;;;28.70;67.40;;;;;;1872108;74;21045;-49
2021/08/09 09:02:38;;;;;;;13.68;10.58;;;28.80;67.30;;;;;;1870487;77;21154;-51
2021/08/09 09:05:16;;;;;;;13.50;10.70;;;28.80;67.10;;;;;;1873285;74;21098;-52
2021/08/09 09:07:48;;;;;;;13.48;10.93;;;28.80;67.00;;;;;;1871243;74;21076;-53
2021/08/09 09:10:29;;;;;;;10.85;9.70;;;28.80;66.80;;;;;;1875680;74;21118;-52
2021/08/09 09:13:18;;;;;;;11.65;10.45;;;28.80;66.80;;;;;;1870253;77;21076;-54
2021/08/09 09:16:07;;;;;;;15.68;11.25;;;28.90;66.50;;;;;;1877074;76;21172;-50
2021/08/09 09:18:48;;;;;;;12.13;10.80;;;29.00;66.60;;;;;;1874642;74;21111;-51
2021/08/09 09:21:26;;;;;;;12.28;10.58;;;29.10;66.00;;;;;;1870372;75;21037;-54
2021/08/09 09:24:15;;;;;;;13.75;12.33;;;29.30;65.20;;;;;;1865736;74;21037;-53
2021/08/09 09:26:47;;;;;;;15.05;10.30;;;29.50;65.00;;;;;;1883925;74;21138;-54
2021/08/09 09:29:17;;;;;;;18.75;10.80;;;29.60;65.00;;;;;;1873684;76;21084;-52
2021/08/09 09:31:48;;;;;;;11.33;9.85;;;29.80;64.70;;;;;;1869120;76;21162;-54
2021/08/09 09:34:19;;;;;;;14.35;10.78;;;30.00;64.00;;;;;;1873802;76;21093;-50
2021/08/09 09:36:59;;;;;;;11.93;10.05;;;30.00;63.30;;;;;;1871004;76;21064;-50
2021/08/09 09:39:39;;;;;;;11.60;9.80;;;30.00;63.10;;;;;;1874141;75;21094;-48
2021/08/09 09:42:11;;;;;;;12.45;9.70;;;30.00;62.90;;;;;;1875521;76;21011;-50
2021/08/09 09:44:43;;;;;;;11.55;10.20;;;30.00;62.90;;;;;;1866154;76;21166;-54
2021/08/09 09:47:27;;;;;;;12.47;10.10;;;29.90;62.80;;;;;;1871247;76;21143;-48
2021/08/09 09:49:58;;;;;;;42.10;13.90;;;29.90;62.70;;;;;;1870675;77;21116;-50
2021/08/09 09:52:47;;;;;;;13.65;9.23;;;29.90;62.70;;;;;;1869808;77;21068;-48
2021/08/09 09:55:17;;;;;;;12.50;8.70;;;30.00;62.50;;;;;;1868998;77;21602;-50
2021/08/09 09:57:47;;;;;;;10.50;8.88;;;30.00;62.10;;;;;;1871152;77;21108;-50
2021/08/09 10:00:17;;;;;;;14.43;9.55;;;30.00;62.00;;;;;;1871373;76;21096;-48
2021/08/09 10:02:50;;;;;;;10.72;8.30;;;30.10;61.60;;;;;;1871080;77;21088;-50
2021/08/09 10:05:19;;;;;;;10.40;7.75;;;30.10;61.40;;;;;;1871251;77;21103;-49
2021/08/09 10:07:51;;;;;;;9.95;7.60;;;30.20;60.50;;;;;;1871310;77;21173;-48
2021/08/09 10:10:25;;;;;;;12.73;7.15;;;30.20;59.80;;;;;;1871119;76;21608;-50
2021/08/09 10:12:55;;;;;;;15.68;7.70;;;30.20;59.60;;;;;;1871440;77;21060;-48
2021/08/09 10:15:24;;;;;;;10.43;7.87;;;30.20;59.00;;;;;;1871265;77;21119;-51
2021/08/09 10:17:55;;;;;;;8.55;7.75;;;30.30;58.90;;;;;;1871155;77;21037;-50
2021/08/09 10:20:24;;;;;;;15.30;12.43;;;30.40;59.10;;;;;;1871240;77;21214;-51
2021/08/09 10:22:59;;;;;;;9.50;7.67;;;30.60;58.90;;;;;;1871333;77;21033;-46
2021/08/09 10:25:45;;;;;;;12.75;7.85;;;30.70;58.60;;;;;;1870971;77;21188;-48
2021/08/09 10:28:15;;;;;;;10.98;8.80;;;30.80;58.70;;;;;;1871407;77;21153;-50
2021/08/09 10:30:44;;;;;;;10.28;7.92;;;30.90;58.30;;;;;;1871116;77;21138;-49
2021/08/09 10:33:15;;;;;;;10.88;9.08;;;31.00;57.90;;;;;;1871257;76;21084;-46
2021/08/09 10:35:51;;;;;;;9.98;8.15;;;31.10;57.60;;;;;;1871246;76;21597;-51
2021/08/09 10:38:28;;;;;;;8.30;7.03;;;31.20;57.20;;;;;;1871214;77;21163;-49
2021/08/09 10:41:11;;;;;;;7.95;7.12;;;31.30;57.10;;;;;;1871104;77;21089;-49
2021/08/09 10:44:00;;;;;;;8.85;7.30;;;31.40;56.60;;;;;;1871324;77;21143;-48
2021/08/09 10:46:44;;;;;;;12.18;7.08;;;31.50;56.10;;;;;;1858602;76;21144;-49
2021/08/09 10:49:43;;;;;;;8.45;6.85;;;31.50;55.80;;;;;;1871284;76;21115;-48
2021/08/09 10:52:15;;;;;;;10.03;7.22;;;31.50;55.30;;;;;;1870973;77;21108;-50
2021/08/09 10:54:44;;;;;;;12.35;8.05;;;31.60;55.20;;;;;;1871217;77;21049;-48
2021/08/09 10:57:16;;;;;;;11.25;7.83;;;31.60;55.20;;;;;;1871269;77;21038;-49
2021/08/09 10:59:47;;;;;;;10.90;7.30;;;31.60;55.10;;;;;;1867789;77;21076;-49
2021/08/09 11:02:24;;;;;;;10.48;7.55;;;31.60;55.30;;;;;;1870976;77;21037;-46
2021/08/09 11:05:14;;;;;;;12.73;8.40;;;31.70;55.50;;;;;;1871250;76;21025;-50
2021/08/09 11:07:45;;;;;;;14.07;7.90;;;31.70;55.40;;;;;;1871234;77;21503;-49
2021/08/09 11:10:14;;;;;;;8.70;7.70;;;31.80;55.40;;;;;;1871160;77;21108;-46
2021/08/09 11:13:00;;;;;;;12.00;9.10;;;31.90;55.40;;;;;;1871349;77;21097;-46
2021/08/09 11:15:31;;;;;;;10.90;8.00;;;31.90;55.20;;;;;;1871292;77;21024;-48
2021/08/09 11:18:01;;;;;;;9.68;8.73;;;31.90;55.00;;;;;;1871861;77;21017;-48
2021/08/09 11:20:33;;;;;;;11.25;8.48;;;31.90;55.00;;;;;;1871927;77;21037;-51
2021/08/09 11:23:07;;;;;;;18.10;9.28;;;31.90;55.00;;;;;;1871850;77;21444;-48
2021/08/09 11:25:47;;;;;;;10.98;8.73;;;31.90;55.20;;;;;;1871678;76;21036;-51
2021/08/09 11:28:21;;;;;;;9.40;7.83;;;31.90;55.00;;;;;;1871993;76;21029;-52
2021/08/09 11:30:58;;;;;;;11.68;8.30;;;31.90;54.90;;;;;;1872111;76;21053;-49
2021/08/09 11:33:30;;;;;;;11.12;7.95;;;32.00;54.60;;;;;;1871826;77;21037;-49
2021/08/09 11:36:11;;;;;;;8.73;7.83;;;32.00;54.30;;;;;;1871892;77;21115;-51
2021/08/09 11:38:54;;;;;;;16.87;7.58;;;31.90;54.50;;;;;;1871737;77;21152;-51
2021/08/09 11:41:25;;;;;;;10.18;7.45;;;31.90;54.30;;;;;;1871782;76;21036;-49
2021/08/09 11:44:08;;;;;;;9.18;8.08;;;32.00;54.40;;;;;;1871627;77;21049;-49
2021/08/09 11:46:50;;;;;;;11.85;8.60;;;32.00;54.30;;;;;;1871734;76;21045;-50
2021/08/09 11:49:20;;;;;;;9.43;7.65;;;32.10;54.40;;;;;;1886260;76;21131;-47
2021/08/09 11:51:51;;;;;;;9.93;7.85;;;32.10;54.30;;;;;;1886141;76;21057;-50
2021/08/09 11:54:20;;;;;;;9.48;7.55;;;32.10;54.10;;;;;;1886178;76;21103;-49
2021/08/09 11:56:55;;;;;;;9.03;7.40;;;32.10;53.90;;;;;;1886004;76;21072;-48
2021/08/09 11:59:25;;;;;;;10.68;7.10;;;32.20;53.80;;;;;;1886123;76;21123;-48
2021/08/09 12:01:57;;;;;;;9.23;7.20;;;32.20;53.70;;;;;;1886188;76;21045;-47
2021/08/09 12:04:27;;;;;;;11.65;7.20;;;32.30;53.60;;;;;;1883157;76;21037;-47
2021/08/09 12:06:58;;;;;;;10.70;7.50;;;32.30;53.30;;;;;;1883174;76;21500;-50
2021/08/09 12:09:42;;;;;;;8.43;7.47;;;32.40;52.80;;;;;;1886181;76;21026;-47
2021/08/09 12:12:13;;;;;;;9.13;7.50;;;32.40;52.10;;;;;;1886197;76;21029;-50
2021/08/09 12:15:03;;;;;;;14.60;7.70;;;32.40;52.50;;;;;;1884810;76;21061;-50
2021/08/09 12:17:32;;;;;;;10.18;7.42;;;32.40;53.10;;;;;;1886231;76;21108;-48
2021/08/09 12:20:14;;;;;;;14.38;7.00;;;32.50;53.00;;;;;;1886313;76;21057;-48
2021/08/09 12:22:43;;;;;;;11.35;7.67;;;32.50;52.70;;;;;;1886098;76;21005;-47
2021/08/09 12:25:20;;;;;;;10.60;6.67;;;32.50;52.50;;;;;;1885903;76;21052;-46
2021/08/09 12:27:49;;;;;;;10.63;6.97;;;32.50;52.00;;;;;;1886238;76;21037;-49
2021/08/09 12:30:19;;;;;;;14.80;6.70;;;32.50;52.00;;;;;;1884699;75;21026;-46
2021/08/09 12:33:02;;;;;;;6.22;5.62;;;32.50;51.30;;;;;;1885986;76;21096;-51
2021/08/09 12:35:38;;;;;;;8.98;6.28;;;32.60;51.10;;;;;;1885991;76;21052;-46
2021/08/09 12:38:08;;;;;;;8.10;7.25;;;32.70;50.60;;;;;;1886271;76;21034;-50
2021/08/09 12:40:53;;;;;;;7.33;6.60;;;32.70;51.60;;;;;;1886278;76;21017;-48
2021/08/09 12:43:23;;;;;;;7.95;6.80;;;32.80;50.60;;;;;;1886307;76;21037;-46
2021/08/09 12:45:54;;;;;;;12.23;8.10;;;32.80;50.90;;;;;;1886212;76;21103;-47
2021/08/09 12:48:23;;;;;;;9.30;8.18;;;32.80;51.10;;;;;;1879415;76;21143;-47
2021/08/09 12:50:54;;;;;;;8.23;6.85;;;32.70;51.40;;;;;;1871854;77;21053;-49
2021/08/09 12:53:23;;;;;;;11.20;6.42;;;32.70;51.70;;;;;;1871908;77;21049;-48
2021/08/09 12:55:53;;;;;;;7.83;6.28;;;32.70;52.00;;;;;;1871876;77;21144;-50